Time;durP1;ratioP1;P1;durP2;ratioP2;P2;SDS_P1;SDS_P2;PMS_P1;PMS_P2;Temp;Humidity;BMP_temperature;BMP_pressure;BME280_temperature;BME280_humidity;BME280_pressure;Samples;Min_cycle;Max_cycle;Signal;HPM_P1;HPM_P2
2023/12/07 00:01:24;;;;;;;19.33;10.38;;;5.10;83.00;;;;;;5046525;28;20327;-76
2023/12/07 00:03:52;;;;;;;20.17;10.27;;;5.10;82.90;;;;;;5063034;28;20299;-74
2023/12/07 00:06:20;;;;;;;16.70;9.95;;;5.10;83.00;;;;;;5047907;28;20285;-76
2023/12/07 00:08:48;;;;;;;17.13;10.60;;;5.10;83.00;;;;;;5049308;28;20207;-76
2023/12/07 00:11:16;;;;;;;15.07;9.95;;;5.10;82.90;;;;;;5050962;28;20214;-75
2023/12/07 00:13:44;;;;;;;15.63;10.20;;;5.10;82.90;;;;;;5050644;28;20295;-77
2023/12/07 00:16:13;;;;;;;19.70;10.60;;;5.10;82.90;;;;;;5053716;28;20199;-77
2023/12/07 00:18:41;;;;;;;17.77;11.80;;;5.10;82.90;;;;;;5046161;28;20993;-76
2023/12/07 00:21:10;;;;;;;21.63;12.93;;;5.10;82.90;;;;;;5049005;28;20232;-76
2023/12/07 00:23:38;;;;;;;17.70;12.52;;;5.20;82.90;;;;;;5046427;28;20212;-75
2023/12/07 00:26:06;;;;;;;17.27;11.80;;;5.20;82.90;;;;;;5050789;28;20196;-75
2023/12/07 00:28:34;;;;;;;20.15;13.00;;;5.20;82.90;;;;;;5051627;28;20660;-75
2023/12/07 00:31:03;;;;;;;22.42;13.68;;;5.20;82.80;;;;;;5042372;28;20263;-76
2023/12/07 00:33:32;;;;;;;18.75;12.73;;;5.20;82.80;;;;;;5025399;28;20208;-75
2023/12/07 00:36:00;;;;;;;21.00;13.25;;;5.10;82.80;;;;;;5026047;28;20592;-76
2023/12/07 00:38:28;;;;;;;18.17;13.05;;;5.10;82.80;;;;;;5027157;28;20193;-75
2023/12/07 00:40:56;;;;;;;19.98;11.82;;;5.10;82.80;;;;;;5026495;28;20639;-75
2023/12/07 00:43:24;;;;;;;21.75;13.90;;;5.10;82.80;;;;;;5030009;28;20209;-75
2023/12/07 00:45:52;;;;;;;23.48;12.80;;;5.10;82.80;;;;;;5029885;28;20242;-75
2023/12/07 00:48:20;;;;;;;20.23;12.57;;;5.10;82.80;;;;;;5032565;28;20217;-75
2023/12/07 00:50:49;;;;;;;19.48;12.57;;;5.10;82.80;;;;;;5028175;28;20528;-76
2023/12/07 00:53:17;;;;;;;21.60;13.45;;;5.10;82.80;;;;;;5025028;28;20208;-76
2023/12/07 00:55:45;;;;;;;19.65;12.00;;;5.10;82.80;;;;;;5028360;28;20259;-76
2023/12/07 00:58:13;;;;;;;17.88;12.00;;;5.10;82.80;;;;;;5031169;28;20211;-76
2023/12/07 01:00:41;;;;;;;18.08;11.35;;;5.10;82.80;;;;;;5024176;28;20319;-76
2023/12/07 01:03:10;;;;;;;20.52;11.98;;;5.10;82.70;;;;;;5029322;28;20595;-76
2023/12/07 01:05:38;;;;;;;18.90;11.65;;;5.10;82.70;;;;;;5030474;28;20864;-76
2023/12/07 01:08:08;;;;;;;18.77;12.68;;;5.10;82.80;;;;;;5028801;28;20226;-75
2023/12/07 01:10:36;;;;;;;20.15;11.80;;;5.10;82.70;;;;;;5025526;28;20300;-75
2023/12/07 01:13:04;;;;;;;20.52;11.90;;;5.10;82.70;;;;;;5037816;28;20664;-76
2023/12/07 01:15:32;;;;;;;23.85;14.05;;;5.10;82.70;;;;;;5031034;28;20794;-76
2023/12/07 01:18:00;;;;;;;25.27;13.48;;;5.10;82.70;;;;;;5033210;28;20207;-76
2023/12/07 01:20:28;;;;;;;22.05;12.48;;;5.10;82.70;;;;;;5026936;28;20263;-76
2023/12/07 01:22:56;;;;;;;24.25;13.98;;;5.10;82.70;;;;;;5025790;28;20221;-76
2023/12/07 01:25:25;;;;;;;19.50;13.55;;;5.10;82.70;;;;;;5030173;28;20538;-75
2023/12/07 01:27:53;;;;;;;22.10;12.93;;;5.10;82.70;;;;;;5027188;28;20605;-76
2023/12/07 01:30:21;;;;;;;18.25;12.77;;;5.10;82.70;;;;;;5028288;28;20200;-76
2023/12/07 01:32:49;;;;;;;22.83;13.43;;;5.10;82.70;;;;;;5026386;28;20202;-76
2023/12/07 01:35:18;;;;;;;19.73;12.18;;;5.10;82.70;;;;;;5031819;28;20634;-76
2023/12/07 01:37:46;;;;;;;18.70;11.90;;;5.10;82.70;;;;;;5029370;28;20197;-74
2023/12/07 01:40:14;;;;;;;16.70;11.75;;;5.10;82.70;;;;;;5030468;28;20215;-73
2023/12/07 01:42:51;;;;;;;21.80;13.07;;;5.10;82.70;;;;;;5026108;28;20313;-76
2023/12/07 01:45:20;;;;;;;19.90;12.43;;;5.10;82.70;;;;;;5027055;28;20211;-77
2023/12/07 01:47:52;;;;;;;23.17;12.38;;;5.10;82.70;;;;;;5025684;28;20243;-74
2023/12/07 01:50:23;;;;;;;25.08;14.30;;;5.20;82.70;;;;;;5027875;28;20245;-75
2023/12/07 01:52:56;;;;;;;19.73;11.95;;;5.20;82.70;;;;;;5025489;28;20220;-75
2023/12/07 01:55:26;;;;;;;19.27;12.32;;;5.10;82.70;;;;;;5028299;28;20205;-74
2023/12/07 01:57:56;;;;;;;18.45;11.43;;;5.10;82.60;;;;;;5027949;28;20200;-76
2023/12/07 02:00:25;;;;;;;19.02;12.63;;;5.10;82.60;;;;;;5028819;28;20801;-76
2023/12/07 02:02:53;;;;;;;20.90;12.35;;;5.10;82.60;;;;;;5023918;28;20227;-76
2023/12/07 02:05:21;;;;;;;21.00;12.88;;;5.10;82.60;;;;;;5029465;28;20200;-76
2023/12/07 02:07:49;;;;;;;18.77;12.48;;;5.10;82.60;;;;;;5025285;28;20270;-76
2023/12/07 02:10:18;;;;;;;21.40;12.98;;;5.10;82.40;;;;;;5027239;28;20219;-76
2023/12/07 02:12:47;;;;;;;19.50;11.85;;;5.10;82.40;;;;;;5018706;28;20231;-76
2023/12/07 02:15:17;;;;;;;20.50;13.32;;;5.10;82.40;;;;;;5026366;28;20587;-76
2023/12/07 02:17:52;;;;;;;21.13;12.93;;;5.00;82.30;;;;;;5025201;28;20212;-76
2023/12/07 02:20:29;;;;;;;20.05;12.52;;;5.00;82.40;;;;;;5027638;28;20195;-75
2023/12/07 02:23:01;;;;;;;21.35;12.98;;;5.00;82.40;;;;;;5027111;28;20235;-75
2023/12/07 02:25:36;;;;;;;30.35;14.90;;;4.90;82.40;;;;;;5025133;28;20199;-76
2023/12/07 02:28:05;;;;;;;23.15;15.77;;;4.90;82.20;;;;;;5027793;28;20626;-76
2023/12/07 02:30:34;;;;;;;24.23;14.82;;;4.80;82.20;;;;;;5026374;28;20765;-76
2023/12/07 02:33:01;;;;;;;22.80;14.75;;;4.80;82.20;;;;;;5029240;28;20637;-76
2023/12/07 02:35:31;;;;;;;24.75;14.43;;;4.80;82.20;;;;;;5024632;28;20219;-75
2023/12/07 02:38:01;;;;;;;23.75;15.70;;;4.70;82.20;;;;;;5027138;28;20547;-75
2023/12/07 02:40:30;;;;;;;21.08;15.52;;;4.70;82.20;;;;;;5024982;28;20235;-76
2023/12/07 02:43:00;;;;;;;29.95;15.85;;;4.60;82.20;;;;;;5025461;28;20209;-76
2023/12/07 02:45:30;;;;;;;27.23;15.55;;;4.60;82.20;;;;;;5028495;28;20303;-75
2023/12/07 02:47:58;;;;;;;23.70;15.73;;;4.60;82.40;;;;;;5023821;28;20219;-75
2023/12/07 02:50:26;;;;;;;23.40;15.60;;;4.60;82.40;;;;;;5031180;28;20211;-76
2023/12/07 02:52:55;;;;;;;23.00;14.27;;;4.60;82.40;;;;;;5024499;28;20638;-75
2023/12/07 02:55:23;;;;;;;28.65;16.42;;;4.60;82.40;;;;;;5024725;28;20218;-76
2023/12/07 02:57:52;;;;;;;28.75;17.10;;;4.60;82.30;;;;;;5028825;28;20204;-75
2023/12/07 03:00:21;;;;;;;32.40;19.55;;;4.50;82.00;;;;;;5027732;28;20258;-75
2023/12/07 03:02:50;;;;;;;33.80;22.45;;;4.40;82.00;;;;;;5043430;28;20219;-75
2023/12/07 03:05:20;;;;;;;28.65;18.58;;;4.40;82.10;;;;;;5050627;28;20233;-76
2023/12/07 03:07:49;;;;;;;43.33;25.10;;;4.30;82.10;;;;;;5045738;28;20192;-75
2023/12/07 03:10:17;;;;;;;39.67;23.52;;;4.30;82.20;;;;;;5042948;28;20876;-74
2023/12/07 03:12:45;;;;;;;39.03;23.15;;;4.30;82.20;;;;;;5047748;28;20215;-74
2023/12/07 03:15:13;;;;;;;39.63;22.40;;;4.30;82.30;;;;;;5044480;28;20719;-76
2023/12/07 03:17:43;;;;;;;40.35;24.38;;;4.30;82.30;;;;;;5050266;28;20207;-76
2023/12/07 03:20:13;;;;;;;33.55;19.27;;;4.30;82.30;;;;;;5054435;28;20556;-76
2023/12/07 03:22:41;;;;;;;31.20;19.20;;;4.30;82.30;;;;;;5050663;28;20215;-76
2023/12/07 03:25:10;;;;;;;24.17;14.90;;;4.30;82.20;;;;;;5052231;28;20295;-76
2023/12/07 03:27:38;;;;;;;27.90;16.25;;;4.20;82.20;;;;;;5052686;28;20235;-75
2023/12/07 03:30:07;;;;;;;24.88;14.85;;;4.20;82.20;;;;;;5049837;28;20206;-75
2023/12/07 03:32:35;;;;;;;21.98;13.20;;;4.20;82.20;;;;;;5046038;28;20661;-75
2023/12/07 03:35:03;;;;;;;22.20;14.00;;;4.20;82.10;;;;;;5054165;28;20304;-75
2023/12/07 03:37:33;;;;;;;19.30;11.85;;;4.20;82.00;;;;;;5050341;28;20691;-75
2023/12/07 03:40:01;;;;;;;21.05;12.75;;;4.10;82.10;;;;;;5052645;28;20219;-75
2023/12/07 03:42:29;;;;;;;22.98;13.82;;;4.10;82.10;;;;;;5050698;28;20290;-75
2023/12/07 03:45:17;;;;;;;17.67;11.35;;;4.10;82.10;;;;;;5067857;28;20509;-75
2023/12/07 03:47:45;;;;;;;22.45;12.50;;;4.10;82.10;;;;;;5049432;28;20306;-75
2023/12/07 03:50:14;;;;;;;23.45;12.40;;;4.10;82.10;;;;;;5053063;28;20212;-75
2023/12/07 03:52:43;;;;;;;20.60;12.02;;;4.10;82.00;;;;;;5049397;28;20215;-74
2023/12/07 03:55:11;;;;;;;18.83;11.20;;;4.10;82.00;;;;;;5050275;28;20210;-74
2023/12/07 03:57:40;;;;;;;19.35;11.48;;;4.00;82.00;;;;;;5049108;28;20199;-76
2023/12/07 04:00:11;;;;;;;19.75;11.40;;;4.00;82.00;;;;;;5048741;28;20215;-75
2023/12/07 04:02:40;;;;;;;20.95;12.65;;;4.00;81.90;;;;;;5020995;28;20212;-75
2023/12/07 04:05:08;;;;;;;23.17;13.18;;;4.00;81.90;;;;;;5028365;28;21047;-75
2023/12/07 04:07:36;;;;;;;28.13;15.13;;;3.90;81.90;;;;;;5026779;28;20265;-74
2023/12/07 04:10:06;;;;;;;26.83;15.80;;;3.90;81.90;;;;;;5028639;28;20228;-74
2023/12/07 04:12:35;;;;;;;26.65;16.75;;;3.80;81.70;;;;;;5027478;28;20204;-76
2023/12/07 04:15:03;;;;;;;37.95;18.50;;;3.80;81.70;;;;;;5028050;28;20208;-75
2023/12/07 04:17:31;;;;;;;25.23;15.45;;;3.80;81.90;;;;;;5027411;28;20200;-76
2023/12/07 04:19:59;;;;;;;27.40;15.98;;;3.80;81.90;;;;;;5023562;28;20231;-76
2023/12/07 04:22:28;;;;;;;21.17;14.27;;;3.80;82.00;;;;;;5028647;28;20281;-77
2023/12/07 04:24:56;;;;;;;24.45;14.20;;;3.70;81.90;;;;;;5027435;28;20264;-76
2023/12/07 04:27:26;;;;;;;22.30;14.35;;;3.70;81.70;;;;;;5028528;28;20206;-76
2023/12/07 04:29:54;;;;;;;19.48;13.60;;;3.70;81.90;;;;;;5027677;28;20522;-76
2023/12/07 04:32:22;;;;;;;27.02;15.23;;;3.70;82.00;;;;;;5034810;28;20237;-74
2023/12/07 04:34:50;;;;;;;24.00;14.48;;;3.70;82.00;;;;;;5038151;28;20210;-74
2023/12/07 04:37:18;;;;;;;20.88;13.18;;;3.70;81.90;;;;;;5036849;28;20212;-77
2023/12/07 04:39:46;;;;;;;25.05;15.05;;;3.60;81.70;;;;;;5029022;28;20203;-76
2023/12/07 04:42:15;;;;;;;25.88;14.50;;;3.60;81.70;;;;;;5031339;28;20218;-76
2023/12/07 04:44:45;;;;;;;23.95;13.55;;;3.60;81.80;;;;;;5029748;28;20726;-76
2023/12/07 04:47:13;;;;;;;24.17;14.45;;;3.50;81.70;;;;;;5028090;28;20199;-76
2023/12/07 04:49:41;;;;;;;23.70;14.43;;;3.50;81.70;;;;;;5038713;28;20206;-76
2023/12/07 04:52:09;;;;;;;27.15;16.10;;;3.50;81.70;;;;;;5038658;28;20271;-75
2023/12/07 04:54:37;;;;;;;23.65;15.90;;;3.40;81.60;;;;;;5036056;28;20286;-74
2023/12/07 04:57:05;;;;;;;24.85;15.10;;;3.40;81.70;;;;;;5020869;28;20620;-76
2023/12/07 04:59:33;;;;;;;24.25;14.63;;;3.40;81.70;;;;;;5029708;28;20204;-76
2023/12/07 05:02:05;;;;;;;21.58;13.90;;;3.40;81.80;;;;;;5046274;28;20568;-75
2023/12/07 05:04:33;;;;;;;22.10;14.18;;;3.40;81.70;;;;;;5051960;28;20292;-76
2023/12/07 05:07:03;;;;;;;29.77;15.13;;;3.40;81.60;;;;;;5054491;28;20212;-76
2023/12/07 05:09:32;;;;;;;24.27;14.98;;;3.30;81.50;;;;;;5051605;28;20292;-75
2023/12/07 05:12:00;;;;;;;23.60;16.13;;;3.30;81.50;;;;;;5055809;28;20208;-74
2023/12/07 05:14:28;;;;;;;28.10;18.10;;;3.20;81.40;;;;;;5049217;28;20194;-75
2023/12/07 05:16:56;;;;;;;34.58;22.52;;;3.20;81.30;;;;;;5044059;28;20292;-76
2023/12/07 05:19:26;;;;;;;40.60;23.77;;;3.20;81.50;;;;;;5051838;28;20307;-76
2023/12/07 05:21:54;;;;;;;30.83;20.98;;;3.20;81.50;;;;;;5050797;28;20673;-76
2023/12/07 05:24:22;;;;;;;32.33;21.02;;;3.20;81.60;;;;;;5047453;28;21003;-75
2023/12/07 05:26:50;;;;;;;34.72;23.00;;;3.10;81.40;;;;;;5049957;28;20192;-75
2023/12/07 05:29:19;;;;;;;38.95;20.70;;;3.10;81.50;;;;;;5050894;28;21169;-75
2023/12/07 05:31:49;;;;;;;28.13;18.45;;;3.10;81.40;;;;;;5033755;28;20251;-75
2023/12/07 05:34:17;;;;;;;34.90;22.77;;;3.10;81.40;;;;;;5028113;28;20568;-76
2023/12/07 05:36:47;;;;;;;27.48;18.23;;;3.10;81.40;;;;;;5028410;28;20226;-75
2023/12/07 05:39:17;;;;;;;28.05;17.20;;;3.00;81.40;;;;;;5028852;28;20297;-76
2023/12/07 05:41:46;;;;;;;58.67;31.80;;;3.00;81.50;;;;;;5027015;28;20588;-75
2023/12/07 05:44:21;;;;;;;78.40;41.13;;;3.00;81.50;;;;;;5027120;28;20796;-75
2023/12/07 05:46:49;;;;;;;87.55;45.80;;;3.00;81.50;;;;;;5023795;28;20201;-75
2023/12/07 05:49:17;;;;;;;54.20;31.30;;;3.00;81.60;;;;;;5030287;28;20205;-75
2023/12/07 05:51:46;;;;;;;47.47;29.48;;;3.00;81.60;;;;;;5031730;28;20217;-75
2023/12/07 05:54:14;;;;;;;40.75;26.92;;;3.00;81.60;;;;;;5027546;28;20202;-76
2023/12/07 05:56:42;;;;;;;40.78;25.38;;;3.00;81.50;;;;;;5020091;28;20295;-75
2023/12/07 05:59:11;;;;;;;38.80;25.92;;;3.00;81.40;;;;;;5027961;28;20336;-76
2023/12/07 06:01:39;;;;;;;39.60;25.02;;;3.00;81.40;;;;;;5028742;28;20227;-76
2023/12/07 06:04:10;;;;;;;31.00;19.13;;;2.90;81.40;;;;;;5026407;28;20211;-75
2023/12/07 06:06:38;;;;;;;27.00;17.83;;;2.90;81.30;;;;;;5030331;28;20233;-75
2023/12/07 06:09:07;;;;;;;38.88;20.63;;;2.90;81.10;;;;;;5022521;28;21456;-75
2023/12/07 06:11:35;;;;;;;30.20;20.38;;;2.80;81.00;;;;;;5027350;28;20261;-75
2023/12/07 06:14:06;;;;;;;32.90;22.38;;;2.70;81.10;;;;;;5026733;28;20212;-75
2023/12/07 06:16:34;;;;;;;27.08;18.15;;;2.70;81.20;;;;;;5022094;28;20598;-75
2023/12/07 06:19:03;;;;;;;32.08;20.25;;;2.70;81.10;;;;;;5028326;28;20201;-75
2023/12/07 06:21:31;;;;;;;26.10;19.35;;;2.60;80.90;;;;;;5027862;28;20301;-75
2023/12/07 06:23:59;;;;;;;30.40;18.83;;;2.60;81.00;;;;;;5026190;28;20216;-75
2023/12/07 06:26:29;;;;;;;40.38;25.17;;;2.50;81.00;;;;;;5034966;28;20195;-76
2023/12/07 06:28:57;;;;;;;40.72;25.25;;;2.50;81.20;;;;;;5028489;28;20208;-75
2023/12/07 06:31:25;;;;;;;35.95;24.05;;;2.60;81.30;;;;;;5026039;28;20633;-76
2023/12/07 06:33:53;;;;;;;35.60;21.10;;;2.60;81.20;;;;;;5027969;28;20639;-75
2023/12/07 06:36:22;;;;;;;33.47;20.83;;;2.60;81.20;;;;;;5034091;28;20215;-76
2023/12/07 06:38:50;;;;;;;35.83;19.13;;;2.60;81.20;;;;;;5033538;28;20232;-75
2023/12/07 06:41:18;;;;;;;29.27;17.33;;;2.60;81.20;;;;;;5028070;28;20216;-75
2023/12/07 06:43:48;;;;;;;29.58;18.70;;;2.60;81.20;;;;;;5026269;28;20209;-75
2023/12/07 06:46:16;;;;;;;28.60;17.48;;;2.60;81.10;;;;;;5027983;28;20224;-75
2023/12/07 06:48:44;;;;;;;60.60;28.48;;;2.60;81.10;;;;;;5026163;28;20298;-75
2023/12/07 06:51:14;;;;;;;70.30;34.72;;;2.50;80.90;;;;;;5027095;28;20214;-76
2023/12/07 06:53:42;;;;;;;36.30;21.02;;;2.50;80.90;;;;;;5025366;28;20205;-75
2023/12/07 06:56:10;;;;;;;59.58;30.58;;;2.50;81.00;;;;;;5025940;28;20222;-75
2023/12/07 06:58:39;;;;;;;82.63;37.40;;;2.50;81.10;;;;;;5025196;28;20196;-75
2023/12/07 07:01:09;;;;;;;73.45;35.08;;;2.50;81.00;;;;;;5025491;28;20810;-76
2023/12/07 07:03:37;;;;;;;73.28;37.22;;;2.50;81.10;;;;;;5021762;28;20290;-75
2023/12/07 07:06:05;;;;;;;71.53;32.85;;;2.50;81.10;;;;;;5027156;28;20711;-75
2023/12/07 07:08:33;;;;;;;76.28;34.30;;;2.50;81.10;;;;;;5029066;28;20540;-76
2023/12/07 07:11:01;;;;;;;66.32;31.52;;;2.50;81.10;;;;;;5023947;28;20214;-75
2023/12/07 07:13:29;;;;;;;89.03;36.17;;;2.50;81.20;;;;;;5025935;28;20216;-75
2023/12/07 07:15:58;;;;;;;82.70;32.65;;;2.50;81.20;;;;;;5027593;28;20269;-76
2023/12/07 07:18:28;;;;;;;104.13;35.67;;;2.50;81.20;;;;;;5030141;28;20203;-75
2023/12/07 07:20:57;;;;;;;74.10;31.90;;;2.50;81.30;;;;;;5026003;28;20208;-75
2023/12/07 07:23:25;;;;;;;72.05;31.33;;;2.50;81.30;;;;;;5026447;28;20201;-75
2023/12/07 07:25:53;;;;;;;98.50;41.20;;;2.60;81.30;;;;;;5031768;28;20657;-75
2023/12/07 07:28:21;;;;;;;114.43;51.17;;;2.60;81.50;;;;;;5026502;28;20323;-75
2023/12/07 07:30:51;;;;;;;106.82;43.65;;;2.60;81.60;;;;;;5028171;28;20321;-75
2023/12/07 07:33:19;;;;;;;85.88;41.88;;;2.70;81.50;;;;;;5021806;28;20211;-75
2023/12/07 07:35:48;;;;;;;97.82;49.78;;;2.70;81.60;;;;;;5036979;28;20230;-75
2023/12/07 07:38:18;;;;;;;70.80;31.13;;;2.70;81.60;;;;;;5026740;28;20650;-75
2023/12/07 07:40:48;;;;;;;70.07;33.22;;;2.70;81.70;;;;;;5029549;28;20285;-75
2023/12/07 07:43:16;;;;;;;60.28;26.63;;;2.80;81.80;;;;;;5023611;28;22916;-75
2023/12/07 07:45:45;;;;;;;55.15;28.00;;;2.80;81.70;;;;;;5026940;28;20228;-76
2023/12/07 07:48:13;;;;;;;83.93;34.58;;;2.80;81.60;;;;;;5029698;28;20209;-76
2023/12/07 07:50:42;;;;;;;65.20;32.67;;;2.80;81.70;;;;;;5025107;28;20223;-75
2023/12/07 07:53:11;;;;;;;57.00;31.20;;;2.80;81.70;;;;;;5026855;28;20785;-76
2023/12/07 07:55:39;;;;;;;67.05;33.25;;;2.80;81.80;;;;;;5037955;28;20293;-75
2023/12/07 07:58:07;;;;;;;67.10;34.47;;;2.80;82.00;;;;;;5028276;28;20217;-76
2023/12/07 08:00:35;;;;;;;68.18;35.05;;;2.90;82.00;;;;;;5027699;28;20238;-76
2023/12/07 08:03:04;;;;;;;54.50;31.70;;;2.90;82.00;;;;;;5028711;28;20204;-76
2023/12/07 08:05:33;;;;;;;127.63;47.78;;;3.00;82.00;;;;;;5033337;28;20642;-76
2023/12/07 08:08:01;;;;;;;79.78;35.65;;;3.00;82.10;;;;;;5031691;28;20209;-75
2023/12/07 08:10:30;;;;;;;106.18;46.50;;;3.00;82.10;;;;;;5030218;28;20215;-76
2023/12/07 08:12:58;;;;;;;76.35;40.95;;;3.00;82.00;;;;;;5031335;28;20231;-75
2023/12/07 08:15:26;;;;;;;63.50;36.88;;;3.00;82.00;;;;;;5030539;28;20207;-76
2023/12/07 08:17:55;;;;;;;44.33;21.85;;;3.00;82.10;;;;;;5034449;28;20220;-77
2023/12/07 08:20:24;;;;;;;36.40;19.80;;;3.00;82.00;;;;;;5032792;28;20292;-76
2023/12/07 08:22:53;;;;;;;41.33;18.95;;;3.00;82.20;;;;;;5032072;28;20207;-77
2023/12/07 08:25:21;;;;;;;33.17;17.27;;;3.10;82.10;;;;;;5030635;28;20310;-75
2023/12/07 08:27:51;;;;;;;36.35;17.77;;;3.10;82.20;;;;;;5032832;28;20661;-76
2023/12/07 08:30:19;;;;;;;31.70;17.48;;;3.10;82.30;;;;;;5021499;28;20201;-75
2023/12/07 08:32:47;;;;;;;39.75;19.50;;;3.20;82.40;;;;;;5032542;28;20258;-76
2023/12/07 08:35:15;;;;;;;38.28;17.98;;;3.20;82.30;;;;;;5031181;28;20215;-76
2023/12/07 08:37:43;;;;;;;41.67;18.02;;;3.20;82.40;;;;;;5028638;28;20198;-76
2023/12/07 08:40:15;;;;;;;30.60;15.00;;;3.30;82.40;;;;;;5031738;28;20224;-75
2023/12/07 08:42:46;;;;;;;28.52;16.73;;;3.30;82.40;;;;;;5024463;28;20212;-76
2023/12/07 08:45:17;;;;;;;30.80;15.05;;;3.40;82.40;;;;;;5029307;28;20213;-76
2023/12/07 08:47:45;;;;;;;28.35;15.20;;;3.40;82.40;;;;;;5031576;28;20217;-75
2023/12/07 08:50:13;;;;;;;31.52;16.52;;;3.40;82.30;;;;;;5031902;28;20236;-75
2023/12/07 08:52:41;;;;;;;31.27;15.50;;;3.40;82.40;;;;;;5031815;28;20219;-75
2023/12/07 08:55:20;;;;;;;43.05;20.52;;;3.40;82.40;;;;;;5029463;28;20213;-75
2023/12/07 08:57:48;;;;;;;38.03;20.95;;;3.50;82.40;;;;;;5033115;28;20218;-76
2023/12/07 09:00:23;;;;;;;47.05;22.20;;;3.50;82.40;;;;;;5029871;28;21081;-76
2023/12/07 09:02:52;;;;;;;35.88;18.23;;;3.50;82.30;;;;;;5030972;28;20236;-76
2023/12/07 09:05:20;;;;;;;37.33;20.77;;;3.50;82.30;;;;;;5027732;28;20450;-76
2023/12/07 09:07:48;;;;;;;34.53;19.88;;;3.50;82.40;;;;;;5034358;28;20218;-76
2023/12/07 09:10:16;;;;;;;32.85;18.90;;;3.50;82.30;;;;;;5033610;28;20205;-76
2023/12/07 09:12:44;;;;;;;31.90;18.17;;;3.40;82.40;;;;;;5033618;28;20210;-75
2023/12/07 09:15:13;;;;;;;38.20;19.20;;;3.40;82.40;;;;;;5027641;28;20690;-76
2023/12/07 09:17:42;;;;;;;31.55;15.90;;;3.40;82.40;;;;;;5032371;28;20198;-75
2023/12/07 09:20:12;;;;;;;39.00;20.77;;;3.40;82.30;;;;;;5028628;28;20220;-75
2023/12/07 09:22:44;;;;;;;36.38;20.13;;;3.30;82.30;;;;;;5032311;28;20651;-76
2023/12/07 09:25:12;;;;;;;37.80;17.58;;;3.30;82.50;;;;;;5031426;28;20216;-75
2023/12/07 09:27:40;;;;;;;49.75;24.90;;;3.30;82.60;;;;;;5030637;28;20279;-75
2023/12/07 09:30:11;;;;;;;43.55;26.08;;;3.30;82.50;;;;;;5025980;28;20210;-75
2023/12/07 09:32:42;;;;;;;33.38;20.13;;;3.30;82.70;;;;;;5027949;28;20226;-76
2023/12/07 09:35:14;;;;;;;34.10;16.38;;;3.20;82.70;;;;;;5028132;28;20598;-75
2023/12/07 09:37:43;;;;;;;44.67;20.50;;;3.20;82.70;;;;;;5027682;28;20997;-76
2023/12/07 09:40:17;;;;;;;43.05;20.20;;;3.10;82.70;;;;;;5030121;28;20208;-76
2023/12/07 09:42:45;;;;;;;45.65;20.15;;;3.10;82.90;;;;;;5030519;28;20209;-76
2023/12/07 09:45:16;;;;;;;61.03;20.35;;;3.10;83.00;;;;;;5028332;28;20685;-76
2023/12/07 09:47:48;;;;;;;49.72;20.27;;;3.10;83.00;;;;;;5028572;28;20537;-76
2023/12/07 09:50:19;;;;;;;38.53;19.15;;;3.00;83.10;;;;;;5029964;28;20214;-76
2023/12/07 09:52:48;;;;;;;37.75;17.33;;;3.00;83.10;;;;;;5028403;28;20217;-76
2023/12/07 09:55:33;;;;;;;36.40;17.25;;;3.00;83.20;;;;;;5031682;28;20276;-76
2023/12/07 09:58:04;;;;;;;36.75;17.20;;;3.00;83.50;;;;;;5029039;28;20964;-76
2023/12/07 10:00:34;;;;;;;32.30;15.88;;;3.10;83.60;;;;;;5026475;28;20278;-76
2023/12/07 10:03:07;;;;;;;33.58;14.52;;;3.20;83.70;;;;;;5050216;28;20204;-76
2023/12/07 10:05:55;;;;;;;33.72;18.95;;;3.20;83.60;;;;;;5047945;28;20202;-76
2023/12/07 10:08:30;;;;;;;33.35;15.35;;;3.30;83.60;;;;;;5046070;28;20206;-75
2023/12/07 10:11:13;;;;;;;31.58;16.80;;;3.40;83.60;;;;;;5049943;28;20209;-76
2023/12/07 10:13:40;;;;;;;31.23;15.27;;;3.40;83.50;;;;;;5051422;28;20193;-76
2023/12/07 10:16:11;;;;;;;30.40;14.48;;;3.40;83.50;;;;;;5041263;28;20290;-75
2023/12/07 10:18:41;;;;;;;37.90;15.82;;;3.50;83.40;;;;;;5062883;28;20210;-76
2023/12/07 10:21:12;;;;;;;31.45;14.32;;;3.50;83.50;;;;;;5051294;28;20205;-75
2023/12/07 10:23:43;;;;;;;32.05;15.95;;;3.50;83.50;;;;;;5050643;28;20229;-76
2023/12/07 10:26:11;;;;;;;35.88;16.10;;;3.60;83.50;;;;;;5049275;28;20207;-76
2023/12/07 10:28:40;;;;;;;32.20;14.20;;;3.60;83.50;;;;;;5047695;28;20198;-76
2023/12/07 10:31:10;;;;;;;42.95;15.60;;;3.60;83.30;;;;;;5046263;28;20265;-76
2023/12/07 10:33:42;;;;;;;24.40;13.38;;;3.60;83.40;;;;;;5052598;28;20646;-76
2023/12/07 10:36:11;;;;;;;26.58;14.20;;;3.60;83.40;;;;;;5054281;28;20682;-76
2023/12/07 10:38:41;;;;;;;35.47;14.45;;;3.70;83.40;;;;;;5048517;28;20208;-76
2023/12/07 10:41:13;;;;;;;33.40;15.35;;;3.70;83.40;;;;;;5047103;28;20207;-76
2023/12/07 10:43:45;;;;;;;55.47;18.48;;;3.60;83.30;;;;;;5047471;28;20206;-76
2023/12/07 10:46:16;;;;;;;40.90;16.00;;;3.50;83.20;;;;;;5045682;28;20214;-75
2023/12/07 10:48:47;;;;;;;38.20;16.33;;;3.50;83.40;;;;;;5050273;28;20387;-76
2023/12/07 10:51:22;;;;;;;38.65;17.80;;;3.50;83.50;;;;;;5049979;28;20206;-76
2023/12/07 10:53:52;;;;;;;51.13;17.70;;;3.50;83.60;;;;;;5040464;28;20615;-76
2023/12/07 10:56:27;;;;;;;43.30;17.88;;;3.50;83.60;;;;;;5046624;28;20210;-76
2023/12/07 10:58:56;;;;;;;47.33;20.63;;;3.50;83.80;;;;;;5042209;28;20222;-76
2023/12/07 11:01:25;;;;;;;47.53;16.50;;;3.40;83.60;;;;;;5042903;28;20234;-76
2023/12/07 11:03:56;;;;;;;36.15;17.23;;;3.40;83.70;;;;;;5039071;28;20206;-76
2023/12/07 11:06:25;;;;;;;34.92;17.45;;;3.40;83.70;;;;;;5054089;28;20203;-76
2023/12/07 11:08:59;;;;;;;28.85;16.30;;;3.50;83.90;;;;;;5049205;28;20282;-75
2023/12/07 11:11:32;;;;;;;40.97;17.33;;;3.50;84.00;;;;;;5048482;28;20201;-75
2023/12/07 11:14:03;;;;;;;40.28;16.15;;;3.60;84.00;;;;;;5046117;28;20731;-76
2023/12/07 11:16:32;;;;;;;46.45;18.08;;;3.60;83.90;;;;;;5048023;28;20210;-76
2023/12/07 11:19:01;;;;;;;44.38;19.23;;;3.60;83.70;;;;;;5042225;28;20216;-76
2023/12/07 11:21:30;;;;;;;40.33;19.42;;;3.60;83.70;;;;;;5049617;28;20883;-76
2023/12/07 11:24:01;;;;;;;39.47;19.20;;;3.60;83.90;;;;;;5040117;28;20216;-75
2023/12/07 11:26:29;;;;;;;45.60;19.00;;;3.60;84.00;;;;;;5047644;28;20305;-76
2023/12/07 11:28:57;;;;;;;42.67;18.50;;;3.60;83.90;;;;;;5049879;28;20581;-76
2023/12/07 11:31:27;;;;;;;45.45;19.25;;;3.60;84.10;;;;;;5045995;28;20242;-76
2023/12/07 11:33:55;;;;;;;41.65;18.88;;;3.70;84.10;;;;;;5047625;28;20226;-76
2023/12/07 11:36:25;;;;;;;53.20;23.85;;;3.70;84.10;;;;;;5047604;28;20300;-76
2023/12/07 11:39:18;;;;;;;45.42;20.85;;;3.70;84.10;;;;;;5053012;28;20229;-76
2023/12/07 11:42:06;;;;;;;41.55;19.05;;;3.70;84.10;;;;;;5052342;28;20297;-76
2023/12/07 11:44:34;;;;;;;41.65;18.70;;;3.70;84.00;;;;;;5053987;28;20221;-76
2023/12/07 11:47:03;;;;;;;41.97;20.20;;;3.70;84.10;;;;;;5062143;28;20210;-75
2023/12/07 11:49:32;;;;;;;45.55;20.05;;;3.80;84.10;;;;;;5050871;28;20204;-76
2023/12/07 11:52:15;;;;;;;39.40;20.60;;;3.80;84.00;;;;;;5052623;28;20567;-76
2023/12/07 11:54:47;;;;;;;41.30;20.80;;;3.80;84.10;;;;;;5052317;28;20688;-76
2023/12/07 11:57:16;;;;;;;58.33;21.30;;;3.80;84.10;;;;;;5047756;28;20219;-76
2023/12/07 11:59:46;;;;;;;50.50;21.45;;;3.80;83.90;;;;;;5056167;28;20192;-76
2023/12/07 12:02:14;;;;;;;44.90;21.85;;;3.70;84.10;;;;;;5048406;28;20230;-76
2023/12/07 12:04:43;;;;;;;45.05;19.50;;;3.70;84.10;;;;;;5051545;28;20200;-76
2023/12/07 12:07:11;;;;;;;43.88;21.00;;;3.70;84.20;;;;;;5056433;28;20211;-76
2023/12/07 12:09:40;;;;;;;46.63;21.73;;;3.70;84.30;;;;;;5052502;28;20222;-76
2023/12/07 12:12:08;;;;;;;53.38;25.83;;;3.80;84.30;;;;;;5050425;28;20231;-76
2023/12/07 12:14:36;;;;;;;45.08;22.98;;;3.80;84.30;;;;;;5053525;28;20214;-76
2023/12/07 12:17:05;;;;;;;50.83;24.48;;;3.80;84.20;;;;;;5043300;28;20216;-76
2023/12/07 12:19:35;;;;;;;53.63;22.63;;;3.80;84.30;;;;;;5049893;28;20317;-76
2023/12/07 12:22:04;;;;;;;49.97;23.98;;;3.90;84.30;;;;;;5048604;28;20212;-76
2023/12/07 12:24:36;;;;;;;59.60;26.75;;;3.90;84.30;;;;;;5052008;28;20201;-76
2023/12/07 12:27:06;;;;;;;51.90;24.70;;;3.90;84.40;;;;;;5051841;28;20234;-76
2023/12/07 12:29:34;;;;;;;51.53;25.15;;;4.00;84.40;;;;;;5052094;28;20226;-76
2023/12/07 12:32:05;;;;;;;44.55;23.50;;;4.00;84.40;;;;;;5052381;28;20239;-75
2023/12/07 12:34:33;;;;;;;42.20;22.05;;;4.00;84.30;;;;;;5049766;28;20624;-77
2023/12/07 12:37:05;;;;;;;41.42;22.25;;;4.00;84.30;;;;;;5054365;28;20216;-75
2023/12/07 12:39:34;;;;;;;51.70;25.92;;;4.00;84.30;;;;;;5046908;28;20282;-76
2023/12/07 12:42:05;;;;;;;67.05;29.92;;;4.00;84.20;;;;;;5048651;28;20221;-76
2023/12/07 12:44:33;;;;;;;51.25;24.40;;;4.00;84.10;;;;;;5047340;28;20206;-76
2023/12/07 12:47:08;;;;;;;46.05;22.90;;;3.90;84.10;;;;;;5050060;28;20208;-77